Time;durP1;ratioP1;P1;durP2;ratioP2;P2;SDS_P1;SDS_P2;PMS_P1;PMS_P2;Temp;Humidity;BMP_temperature;BMP_pressure;BME280_temperature;BME280_humidity;BME280_pressure;Samples;Min_cycle;Max_cycle;Signal;HPM_P1;HPM_P2
2022/02/21 00:01:12;;;;;;;12.25;5.70;;;;;;;;;;4977221;28;20423;-69
2022/02/21 00:03:40;;;;;;;13.90;6.10;;;;;;;;;;4977460;28;20047;-69
2022/02/21 00:06:07;;;;;;;11.38;5.55;;;;;;;;;;4960176;28;20047;-70
2022/02/21 00:08:34;;;;;;;14.73;6.13;;;;;;;;;;4977285;28;20050;-69
2022/02/21 00:11:02;;;;;;;11.82;6.05;;;;;;;;;;4977570;28;20434;-69
2022/02/21 00:13:30;;;;;;;13.77;6.45;;;;;;;;;;4944396;28;20415;-69
2022/02/21 00:16:00;;;;;;;13.10;5.97;;;;;;;;;;4977257;28;20034;-69
2022/02/21 00:18:28;;;;;;;16.85;6.65;;;;;;;;;;4976966;28;20049;-69
2022/02/21 00:20:57;;;;;;;12.45;6.47;;;;;;;;;;4977127;28;20059;-69
2022/02/21 00:23:26;;;;;;;18.42;6.82;;;;;;;;;;4977038;28;20390;-69
2022/02/21 00:25:54;;;;;;;17.10;6.70;;;;;;;;;;4976194;28;20067;-70
2022/02/21 00:28:21;;;;;;;18.15;7.28;;;;;;;;;;4977174;28;20045;-70
2022/02/21 00:30:48;;;;;;;21.05;6.30;;;;;;;;;;4976659;28;20047;-69
2022/02/21 00:33:19;;;;;;;15.55;6.00;;;;;;;;;;4969104;28;20059;-69
2022/02/21 00:35:47;;;;;;;13.30;6.97;;;;;;;;;;4977190;28;20043;-69
2022/02/21 00:38:15;;;;;;;12.00;6.82;;;;;;;;;;4976508;28;20042;-69
2022/02/21 00:40:42;;;;;;;13.95;7.18;;;;;;;;;;4959621;28;20042;-69
2022/02/21 00:43:10;;;;;;;16.25;7.15;;;;;;;;;;4976857;28;20499;-69
2022/02/21 00:45:37;;;;;;;15.32;7.20;;;;;;;;;;4976669;28;20046;-69
2022/02/21 00:48:05;;;;;;;16.58;7.60;;;;;;;;;;4976368;28;20062;-69
2022/02/21 00:50:35;;;;;;;19.90;7.82;;;;;;;;;;4976453;28;20038;-69
2022/02/21 00:53:03;;;;;;;15.80;7.55;;;;;;;;;;4976504;28;20118;-69
2022/02/21 00:55:34;;;;;;;17.38;7.57;;;;;;;;;;4976560;28;20066;-69
2022/02/21 00:58:04;;;;;;;15.15;7.75;;;;;;;;;;4959494;28;20093;-69
2022/02/21 01:00:32;;;;;;;20.63;7.38;;;;;;;;;;4976584;28;20042;-69
2022/02/21 01:03:00;;;;;;;20.40;8.77;;;;;;;;;;4976342;28;20081;-69
2022/02/21 01:05:28;;;;;;;19.50;8.15;;;;;;;;;;4976686;28;20039;-69
2022/02/21 01:07:57;;;;;;;21.90;8.13;;;;;;;;;;4976564;28;20097;-69
2022/02/21 01:10:25;;;;;;;14.52;8.30;;;;;;;;;;4976631;28;20046;-69
2022/02/21 01:12:52;;;;;;;18.30;8.45;;;;;;;;;;4976310;28;20402;-69
2022/02/21 01:15:20;;;;;;;20.40;8.77;;;;;;;;;;4976183;28;20475;-69
2022/02/21 01:17:47;;;;;;;22.27;9.07;;;;;;;;;;4975989;28;20039;-69
2022/02/21 01:20:15;;;;;;;18.63;9.30;;;;;;;;;;4976164;28;20054;-69
2022/02/21 01:22:43;;;;;;;19.95;8.52;;;;;;;;;;4976057;28;20069;-69
2022/02/21 01:25:11;;;;;;;16.73;9.02;;;;;;;;;;4976204;28;20038;-69
2022/02/21 01:27:38;;;;;;;23.65;10.35;;;;;;;;;;4975496;28;20062;-69
2022/02/21 01:30:08;;;;;;;18.42;9.77;;;;;;;;;;4973757;28;20418;-69
2022/02/21 01:32:37;;;;;;;19.85;9.15;;;;;;;;;;4958897;28;20058;-69
2022/02/21 01:35:04;;;;;;;20.17;9.20;;;;;;;;;;4956463;28;20485;-69
2022/02/21 01:37:38;;;;;;;23.75;9.50;;;;;;;;;;4955169;29;20043;-69
2022/02/21 01:40:09;;;;;;;17.15;8.85;;;;;;;;;;4956430;29;20043;-69
2022/02/21 01:42:37;;;;;;;17.60;8.93;;;;;;;;;;4956269;29;20097;-69
2022/02/21 01:45:05;;;;;;;17.00;8.68;;;;;;;;;;4956531;29;20053;-69
2022/02/21 01:47:33;;;;;;;20.90;8.75;;;;;;;;;;4956614;29;20047;-69
2022/02/21 01:50:01;;;;;;;17.52;9.05;;;;;;;;;;4956115;29;20047;-69
2022/02/21 01:52:28;;;;;;;23.13;9.52;;;;;;;;;;4956326;29;20364;-69
2022/02/21 01:54:56;;;;;;;16.00;8.68;;;;;;;;;;4956501;29;20443;-69
2022/02/21 01:57:25;;;;;;;17.05;8.77;;;;;;;;;;4956121;29;20503;-69
2022/02/21 01:59:53;;;;;;;19.85;9.48;;;;;;;;;;4955961;29;20098;-69
2022/02/21 02:02:20;;;;;;;19.55;9.25;;;;;;;;;;4955628;29;20043;-68
2022/02/21 02:04:48;;;;;;;16.55;9.25;;;;;;;;;;4955911;29;20047;-68
2022/02/21 02:07:16;;;;;;;16.25;8.30;;;;;;;;;;4955955;29;20483;-69
2022/02/21 02:09:43;;;;;;;19.70;9.07;;;;;;;;;;4955823;29;20491;-69
2022/02/21 02:12:11;;;;;;;23.33;9.10;;;;;;;;;;4955897;29;20050;-69
2022/02/21 02:14:40;;;;;;;15.50;8.80;;;;;;;;;;4955935;29;20054;-69
2022/02/21 02:17:15;;;;;;;16.92;9.23;;;;;;;;;;4955656;29;20070;-69
2022/02/21 02:19:43;;;;;;;15.23;8.05;;;;;;;;;;4955367;29;20074;-69
2022/02/21 02:22:14;;;;;;;15.60;8.27;;;;;;;;;;4955760;29;20047;-69
2022/02/21 02:24:43;;;;;;;16.48;8.20;;;;;;;;;;4955914;29;20487;-69
2022/02/21 02:27:10;;;;;;;16.92;8.35;;;;;;;;;;4955316;29;20051;-69
2022/02/21 02:29:39;;;;;;;19.73;8.00;;;;;;;;;;4955854;29;20138;-70
2022/02/21 02:32:07;;;;;;;15.73;8.32;;;;;;;;;;4955193;29;20487;-69
2022/02/21 02:34:38;;;;;;;22.98;8.68;;;;;;;;;;4955737;29;20122;-69
2022/02/21 02:37:06;;;;;;;20.33;8.30;;;;;;;;;;4955295;29;20046;-69
2022/02/21 02:39:33;;;;;;;16.88;8.32;;;;;;;;;;4954971;29;20039;-69
2022/02/21 02:42:01;;;;;;;18.20;8.63;;;;;;;;;;4955532;29;20050;-69
2022/02/21 02:44:29;;;;;;;19.73;8.30;;;;;;;;;;4955353;29;20039;-69
2022/02/21 02:46:56;;;;;;;15.43;7.60;;;;;;;;;;4955160;28;20043;-68
2022/02/21 02:49:24;;;;;;;15.55;7.45;;;;;;;;;;4938330;29;20047;-69
2022/02/21 02:51:51;;;;;;;15.35;7.50;;;;;;;;;;4937859;29;20043;-69
2022/02/21 02:54:19;;;;;;;18.83;8.00;;;;;;;;;;4955156;29;20043;-69
2022/02/21 02:56:47;;;;;;;14.82;7.45;;;;;;;;;;4955114;29;20046;-69
2022/02/21 02:59:15;;;;;;;17.67;8.02;;;;;;;;;;4954829;29;20043;-69
2022/02/21 03:01:44;;;;;;;14.98;7.55;;;;;;;;;;4954864;29;20130;-69
2022/02/21 03:04:11;;;;;;;12.15;6.72;;;;;;;;;;4955106;29;20058;-69
2022/02/21 03:06:39;;;;;;;14.43;7.25;;;;;;;;;;4937962;29;20046;-69
2022/02/21 03:09:06;;;;;;;12.48;7.03;;;;;;;;;;4954771;29;20047;-69
2022/02/21 03:11:34;;;;;;;13.40;6.50;;;;;;;;;;4954891;29;20062;-70
2022/02/21 03:14:01;;;;;;;10.20;6.57;;;;;;;;;;4954374;29;20046;-69
2022/02/21 03:16:29;;;;;;;9.82;5.85;;;;;;;;;;4954729;29;20039;-69
2022/02/21 03:18:56;;;;;;;14.60;6.13;;;;;;;;;;4954746;29;20067;-70
2022/02/21 03:21:24;;;;;;;7.82;5.32;;;;;;;;;;4954642;29;20047;-69
2022/02/21 03:23:51;;;;;;;11.43;5.70;;;;;;;;;;4937787;29;20059;-70
2022/02/21 03:26:19;;;;;;;11.30;5.40;;;;;;;;;;4954464;29;20059;-69
2022/02/21 03:28:47;;;;;;;9.77;5.07;;;;;;;;;;4954964;29;20082;-70
2022/02/21 03:31:16;;;;;;;12.25;5.40;;;;;;;;;;4954677;29;20050;-69
2022/02/21 03:33:44;;;;;;;7.63;5.38;;;;;;;;;;4955180;29;20120;-70
2022/02/21 03:36:12;;;;;;;8.15;4.65;;;;;;;;;;4954909;29;20039;-70
2022/02/21 03:38:39;;;;;;;8.05;4.95;;;;;;;;;;4954513;29;20050;-69
2022/02/21 03:41:07;;;;;;;17.45;5.07;;;;;;;;;;4954941;29;20036;-69
2022/02/21 03:43:34;;;;;;;6.95;4.80;;;;;;;;;;4937818;29;20043;-70
2022/02/21 03:46:02;;;;;;;12.43;5.10;;;;;;;;;;4954642;29;20047;-69
2022/02/21 03:48:29;;;;;;;13.15;4.80;;;;;;;;;;4954685;29;20074;-69
2022/02/21 03:50:57;;;;;;;8.65;5.00;;;;;;;;;;4954370;29;20427;-70
2022/02/21 03:53:24;;;;;;;9.18;5.28;;;;;;;;;;4954602;29;20407;-69
2022/02/21 03:55:52;;;;;;;11.05;5.20;;;;;;;;;;4954385;29;20043;-69
2022/02/21 03:58:19;;;;;;;12.30;6.53;;;;;;;;;;4954403;28;20074;-69
2022/02/21 04:00:47;;;;;;;17.15;10.65;;;;;;;;;;4940854;29;20043;-69
2022/02/21 04:03:15;;;;;;;18.30;10.85;;;;;;;;;;4957868;29;20479;-69
2022/02/21 04:05:42;;;;;;;13.40;7.55;;;;;;;;;;4969077;28;20038;-69
2022/02/21 04:08:10;;;;;;;12.43;7.13;;;;;;;;;;4977219;28;20047;-69
2022/02/21 04:10:37;;;;;;;9.90;6.03;;;;;;;;;;4977342;28;20053;-69
2022/02/21 04:13:05;;;;;;;13.35;5.88;;;;;;;;;;4959999;28;20047;-68
2022/02/21 04:15:33;;;;;;;11.32;5.30;;;;;;;;;;4976893;28;20039;-70
2022/02/21 04:18:00;;;;;;;15.80;5.45;;;;;;;;;;4976864;28;20046;-69
2022/02/21 04:20:29;;;;;;;10.20;5.05;;;;;;;;;;4976818;28;20234;-69
2022/02/21 04:22:57;;;;;;;14.15;5.60;;;;;;;;;;4977041;28;20039;-69
2022/02/21 04:25:24;;;;;;;10.63;5.50;;;;;;;;;;4976881;28;20137;-69
2022/02/21 04:27:53;;;;;;;12.95;6.05;;;;;;;;;;4976500;28;20074;-69
2022/02/21 04:30:21;;;;;;;10.30;5.68;;;;;;;;;;4976593;28;20043;-69
2022/02/21 04:32:49;;;;;;;12.65;5.53;;;;;;;;;;4976920;28;20047;-68
2022/02/21 04:35:17;;;;;;;11.43;5.50;;;;;;;;;;4976869;28;20118;-69
2022/02/21 04:37:45;;;;;;;10.35;5.40;;;;;;;;;;4976625;28;20039;-69
2022/02/21 04:40:17;;;;;;;11.98;5.43;;;;;;;;;;4976368;28;20035;-69
2022/02/21 04:42:46;;;;;;;15.25;5.90;;;;;;;;;;4976705;28;20039;-69
2022/02/21 04:45:14;;;;;;;13.57;6.35;;;;;;;;;;4959494;28;20050;-69
2022/02/21 04:47:42;;;;;;;10.93;6.03;;;;;;;;;;4976596;28;20050;-69
2022/02/21 04:50:10;;;;;;;8.40;5.53;;;;;;;;;;4976651;28;20141;-69
2022/02/21 04:52:40;;;;;;;10.75;5.88;;;;;;;;;;4976814;28;20430;-69
2022/02/21 04:55:09;;;;;;;11.13;5.65;;;;;;;;;;4976640;28;20122;-69
2022/02/21 04:57:36;;;;;;;9.68;5.38;;;;;;;;;;4976361;28;20038;-69
2022/02/21 05:00:06;;;;;;;9.68;5.65;;;;;;;;;;4976648;28;20109;-69
2022/02/21 05:02:34;;;;;;;11.25;5.88;;;;;;;;;;4976232;28;20181;-69
2022/02/21 05:05:03;;;;;;;10.07;5.70;;;;;;;;;;4976682;28;20070;-69
2022/02/21 05:07:31;;;;;;;11.77;6.05;;;;;;;;;;4976348;28;20047;-69
2022/02/21 05:09:58;;;;;;;9.93;6.35;;;;;;;;;;4976239;28;20047;-69
2022/02/21 05:12:25;;;;;;;17.02;6.88;;;;;;;;;;4958987;28;20479;-69
2022/02/21 05:14:53;;;;;;;9.18;6.10;;;;;;;;;;4975959;28;20038;-69
2022/02/21 05:17:21;;;;;;;10.88;6.25;;;;;;;;;;4975985;28;20047;-69
2022/02/21 05:19:48;;;;;;;15.25;6.40;;;;;;;;;;4958813;28;20058;-68
2022/02/21 05:22:16;;;;;;;12.07;6.20;;;;;;;;;;4976035;28;20101;-69
2022/02/21 05:24:43;;;;;;;12.55;6.55;;;;;;;;;;4975957;28;20050;-69
2022/02/21 05:27:11;;;;;;;12.60;6.72;;;;;;;;;;4958693;28;20077;-69
2022/02/21 05:29:39;;;;;;;13.50;6.60;;;;;;;;;;4976240;28;20094;-69
2022/02/21 05:32:06;;;;;;;12.65;6.80;;;;;;;;;;4975925;28;20048;-69
2022/02/21 05:34:34;;;;;;;10.35;7.35;;;;;;;;;;4976097;28;20122;-68
2022/02/21 05:37:05;;;;;;;12.57;5.63;;;;;;;;;;4975448;28;20042;-69
2022/02/21 05:39:34;;;;;;;11.97;5.07;;;;;;;;;;4974974;28;20527;-69
2022/02/21 05:42:02;;;;;;;7.57;4.88;;;;;;;;;;4957963;28;20061;-69
2022/02/21 05:44:29;;;;;;;10.25;4.78;;;;;;;;;;4972462;28;20043;-68
2022/02/21 05:46:56;;;;;;;9.15;4.88;;;;;;;;;;4974662;28;20072;-69
2022/02/21 05:49:24;;;;;;;7.93;4.88;;;;;;;;;;4974888;28;20047;-69
2022/02/21 05:51:52;;;;;;;5.68;4.63;;;;;;;;;;4974390;28;20089;-69
2022/02/21 05:54:20;;;;;;;12.98;5.40;;;;;;;;;;4975081;28;20115;-69
2022/02/21 05:56:47;;;;;;;10.45;5.30;;;;;;;;;;4974630;28;20039;-69
2022/02/21 05:59:15;;;;;;;11.02;5.28;;;;;;;;;;4975079;28;20043;-69
2022/02/21 06:01:42;;;;;;;13.45;6.93;;;;;;;;;;4961981;28;20043;-69
2022/02/21 06:04:10;;;;;;;16.75;6.55;;;;;;;;;;4955682;29;20039;-69
2022/02/21 06:06:38;;;;;;;13.73;7.00;;;;;;;;;;4956178;29;20046;-69
2022/02/21 06:09:05;;;;;;;16.70;6.57;;;;;;;;;;4956129;29;20065;-68
2022/02/21 06:11:34;;;;;;;11.40;6.97;;;;;;;;;;4956119;29;20431;-67
2022/02/21 06:14:04;;;;;;;12.27;6.70;;;;;;;;;;4955946;29;20042;-68
2022/02/21 06:16:31;;;;;;;10.43;5.50;;;;;;;;;;4955737;29;20078;-68
2022/02/21 06:19:00;;;;;;;8.35;5.65;;;;;;;;;;4955667;29;20082;-67
2022/02/21 06:21:28;;;;;;;8.45;5.00;;;;;;;;;;4938865;28;20353;-68
2022/02/21 06:23:56;;;;;;;8.32;5.20;;;;;;;;;;4969638;28;20573;-67
2022/02/21 06:26:23;;;;;;;8.38;4.85;;;;;;;;;;4974413;28;20054;-69
2022/02/21 06:28:51;;;;;;;11.55;4.97;;;;;;;;;;4974335;28;20058;-68
2022/02/21 06:31:20;;;;;;;8.68;5.05;;;;;;;;;;4973963;28;20137;-68
2022/02/21 06:33:48;;;;;;;10.95;5.20;;;;;;;;;;4957052;28;20394;-69
2022/02/21 06:36:15;;;;;;;10.57;5.30;;;;;;;;;;4969672;28;20399;-67
2022/02/21 06:38:44;;;;;;;11.48;4.63;;;;;;;;;;4960291;28;20043;-67
2022/02/21 06:41:14;;;;;;;12.65;5.47;;;;;;;;;;4973648;28;20047;-68
2022/02/21 06:43:42;;;;;;;10.93;5.35;;;;;;;;;;4974618;28;20463;-68
2022/02/21 06:46:11;;;;;;;10.57;5.30;;;;;;;;;;4971332;28;20042;-68
2022/02/21 06:48:39;;;;;;;11.57;5.43;;;;;;;;;;4974389;28;20130;-68
2022/02/21 06:51:06;;;;;;;13.70;6.05;;;;;;;;;;4956418;28;20419;-68
2022/02/21 06:53:35;;;;;;;9.65;5.00;;;;;;;;;;4973486;28;20039;-68
2022/02/21 06:56:04;;;;;;;11.48;5.20;;;;;;;;;;4966211;28;20050;-67
2022/02/21 06:58:32;;;;;;;14.70;6.07;;;;;;;;;;4957308;28;20467;-67
2022/02/21 07:01:00;;;;;;;17.73;6.43;;;;;;;;;;4968137;28;20039;-70
2022/02/21 07:03:28;;;;;;;10.70;5.03;;;;;;;;;;4973667;28;20045;-67
2022/02/21 07:05:56;;;;;;;13.63;5.35;;;;;;;;;;4966835;28;20384;-68
2022/02/21 07:08:30;;;;;;;12.45;5.13;;;;;;;;;;4953840;29;20052;-67
2022/02/21 07:10:58;;;;;;;16.35;4.88;;;;;;;;;;4955361;29;20047;-67
2022/02/21 07:13:29;;;;;;;13.43;4.45;;;;;;;;;;4954839;29;20061;-69
2022/02/21 07:15:56;;;;;;;10.80;4.68;;;;;;;;;;4953052;29;20066;-67
2022/02/21 07:18:25;;;;;;;12.95;5.03;;;;;;;;;;4969463;28;20049;-69
2022/02/21 07:20:57;;;;;;;10.35;5.03;;;;;;;;;;4973924;28;20054;-68
2022/02/21 07:23:25;;;;;;;10.32;4.85;;;;;;;;;;4974025;28;20125;-67
2022/02/21 07:25:53;;;;;;;10.32;4.97;;;;;;;;;;4985775;23;20046;-68
2022/02/21 07:28:21;;;;;;;13.35;4.72;;;;;;;;;;4992806;28;20052;-69
2022/02/21 07:30:50;;;;;;;15.40;4.88;;;;;;;;;;4993222;28;20073;-69
2022/02/21 07:33:17;;;;;;;14.55;5.00;;;;;;;;;;4987500;28;20039;-68
2022/02/21 07:35:45;;;;;;;15.48;5.25;;;;;;;;;;4996184;28;20061;-69
2022/02/21 07:38:13;;;;;;;9.77;4.88;;;;;;;;;;4997046;28;20073;-69
2022/02/21 07:40:40;;;;;;;12.93;5.30;;;;;;;;;;4997092;28;20038;-69
2022/02/21 07:43:08;;;;;;;12.80;4.95;;;;;;;;;;4997270;28;20393;-67
2022/02/21 07:45:35;;;;;;;15.65;6.30;;;;;;;;;;4996912;28;20050;-69
2022/02/21 07:48:03;;;;;;;12.02;6.57;;;;;;;;;;4996801;28;20053;-68
2022/02/21 07:50:33;;;;;;;12.13;6.18;;;;;;;;;;4997017;28;20408;-68
2022/02/21 07:53:02;;;;;;;15.57;8.18;;;;;;;;;;4996692;28;20043;-67
2022/02/21 07:55:32;;;;;;;16.13;8.32;;;;;;;;;;4996827;28;20066;-68
2022/02/21 07:57:59;;;;;;;21.95;8.23;;;;;;;;;;4996457;28;20039;-68
2022/02/21 08:00:27;;;;;;;15.77;7.88;;;;;;;;;;4990467;28;20124;-69
2022/02/21 08:02:55;;;;;;;15.93;8.40;;;;;;;;;;4977254;28;20129;-67
2022/02/21 08:05:25;;;;;;;16.55;8.77;;;;;;;;;;4977044;28;20046;-67
2022/02/21 08:07:52;;;;;;;19.45;7.97;;;;;;;;;;4963743;28;20406;-68
2022/02/21 08:10:20;;;;;;;25.88;9.93;;;;;;;;;;4972954;28;20141;-66
2022/02/21 08:12:47;;;;;;;16.50;8.73;;;;;;;;;;4976411;28;20516;-68
2022/02/21 08:15:15;;;;;;;17.30;8.32;;;;;;;;;;4976506;28;20402;-68
2022/02/21 08:17:43;;;;;;;13.00;7.03;;;;;;;;;;4976920;28;20043;-68
2022/02/21 08:20:14;;;;;;;14.57;6.90;;;;;;;;;;4976548;28;20043;-70
2022/02/21 08:22:42;;;;;;;9.27;5.80;;;;;;;;;;4976673;28;20053;-70
2022/02/21 08:25:11;;;;;;;13.07;6.47;;;;;;;;;;4976402;28;20050;-67
2022/02/21 08:27:39;;;;;;;12.13;6.50;;;;;;;;;;4976253;28;20059;-67
2022/02/21 08:30:08;;;;;;;14.40;5.93;;;;;;;;;;4976805;28;20042;-68
2022/02/21 08:32:38;;;;;;;13.70;6.47;;;;;;;;;;4975966;28;20046;-68
2022/02/21 08:35:05;;;;;;;16.02;6.40;;;;;;;;;;4975488;28;20053;-67
2022/02/21 08:37:33;;;;;;;9.30;5.47;;;;;;;;;;4984876;28;20046;-68
2022/02/21 08:40:02;;;;;;;10.98;5.55;;;;;;;;;;4971915;28;20042;-67
2022/02/21 08:42:30;;;;;;;10.63;5.18;;;;;;;;;;4979018;28;20046;-67
2022/02/21 08:44:59;;;;;;;9.57;4.50;;;;;;;;;;4986583;28;20065;-67
2022/02/21 08:47:26;;;;;;;15.27;4.68;;;;;;;;;;4985363;28;20066;-68
2022/02/21 08:49:54;;;;;;;7.65;4.00;;;;;;;;;;4969447;28;20035;-68
2022/02/21 08:52:22;;;;;;;17.15;4.88;;;;;;;;;;4986798;28;20043;-67
2022/02/21 08:54:50;;;;;;;5.68;3.85;;;;;;;;;;4976265;28;20057;-69
2022/02/21 08:57:17;;;;;;;8.70;3.72;;;;;;;;;;4976416;28;20042;-67
2022/02/21 08:59:46;;;;;;;9.98;3.80;;;;;;;;;;4943113;28;20038;-69
2022/02/21 09:02:13;;;;;;;6.45;3.08;;;;;;;;;;4959297;28;20046;-70
2022/02/21 09:05:01;;;;;;;8.77;3.53;;;;;;;;;;4994899;28;20121;-68
2022/02/21 09:07:28;;;;;;;9.32;3.35;;;;;;;;;;4995082;28;20077;-70
2022/02/21 09:09:57;;;;;;;6.30;3.35;;;;;;;;;;4995037;28;20413;-68
2022/02/21 09:12:24;;;;;;;5.75;3.42;;;;;;;;;;4994834;28;20056;-67
2022/02/21 09:14:52;;;;;;;11.70;3.42;;;;;;;;;;4989760;28;20153;-68
2022/02/21 09:17:19;;;;;;;7.82;3.65;;;;;;;;;;4975243;28;20051;-67
2022/02/21 09:19:50;;;;;;;6.30;3.13;;;;;;;;;;4975610;28;20051;-68
2022/02/21 09:22:17;;;;;;;7.88;3.33;;;;;;;;;;4975371;28;20430;-67
2022/02/21 09:24:45;;;;;;;7.72;3.15;;;;;;;;;;4977774;28;20138;-67
2022/02/21 09:27:12;;;;;;;7.95;3.40;;;;;;;;;;4992504;28;20054;-69
2022/02/21 09:29:39;;;;;;;6.60;3.50;;;;;;;;;;4994788;28;20053;-69
2022/02/21 09:32:07;;;;;;;11.23;3.20;;;;;;;;;;4988241;28;20070;-67
2022/02/21 09:34:36;;;;;;;6.38;3.53;;;;;;;;;;4975236;28;20047;-70
2022/02/21 09:37:04;;;;;;;8.30;3.60;;;;;;;;;;4975099;28;20070;-67
2022/02/21 09:39:34;;;;;;;11.02;3.85;;;;;;;;;;4974721;28;20089;-67
2022/02/21 09:42:02;;;;;;;7.30;3.67;;;;;;;;;;4979146;28;20046;-67
2022/02/21 09:44:29;;;;;;;8.75;3.83;;;;;;;;;;4975427;28;20501;-68
2022/02/21 09:46:57;;;;;;;11.70;4.22;;;;;;;;;;4974647;28;20046;-67
2022/02/21 09:49:29;;;;;;;7.50;3.40;;;;;;;;;;4972172;28;20057;-68
2022/02/21 09:51:56;;;;;;;7.35;3.72;;;;;;;;;;4983670;28;20129;-69
2022/02/21 09:54:24;;;;;;;8.95;3.55;;;;;;;;;;4993996;28;20401;-69
2022/02/21 09:56:52;;;;;;;7.72;3.55;;;;;;;;;;4993213;28;20474;-69
2022/02/21 09:59:19;;;;;;;5.82;3.30;;;;;;;;;;4976503;28;20134;-69
2022/02/21 10:01:48;;;;;;;5.90;3.20;;;;;;;;;;4994089;28;20066;-68
2022/02/21 10:04:23;;;;;;;6.22;3.60;;;;;;;;;;4993687;28;20046;-69
2022/02/21 10:06:53;;;;;;;7.43;4.20;;;;;;;;;;4994016;28;20094;-68
2022/02/21 10:09:25;;;;;;;7.68;3.35;;;;;;;;;;4994058;28;20495;-69
2022/02/21 10:11:58;;;;;;;6.07;3.30;;;;;;;;;;4993848;28;20042;-68
2022/02/21 10:14:30;;;;;;;7.78;3.35;;;;;;;;;;4993603;28;20053;-69
2022/02/21 10:16:57;;;;;;;9.10;3.70;;;;;;;;;;4993612;28;20048;-67
2022/02/21 10:19:27;;;;;;;7.57;3.30;;;;;;;;;;4994014;28;20038;-69
2022/02/21 10:22:01;;;;;;;6.00;3.00;;;;;;;;;;4993663;28;20046;-68
2022/02/21 10:24:41;;;;;;;7.10;3.38;;;;;;;;;;4993487;28;20077;-69
2022/02/21 10:27:26;;;;;;;7.35;3.03;;;;;;;;;;4993183;28;20078;-69
2022/02/21 10:30:16;;;;;;;4.60;2.70;;;;;;;;;;4993531;28;20137;-67
2022/02/21 10:33:10;;;;;;;8.23;2.97;;;;;;;;;;4993512;28;20045;-69
2022/02/21 10:35:39;;;;;;;5.25;2.53;;;;;;;;;;4993269;28;20038;-69
2022/02/21 10:38:09;;;;;;;7.70;3.40;;;;;;;;;;4993544;28;20055;-70
2022/02/21 10:40:40;;;;;;;8.73;3.25;;;;;;;;;;4993326;28;20117;-69
2022/02/21 10:43:14;;;;;;;8.52;3.33;;;;;;;;;;4993364;28;20129;-69
2022/02/21 10:45:43;;;;;;;6.25;2.53;;;;;;;;;;4993369;28;20046;-69
2022/02/21 10:48:16;;;;;;;8.35;3.05;;;;;;;;;;4993460;28;20045;-69
2022/02/21 10:51:03;;;;;;;6.50;2.90;;;;;;;;;;4990117;28;20058;-69
2022/02/21 10:53:38;;;;;;;7.63;3.55;;;;;;;;;;4973811;28;20049;-68
2022/02/21 10:56:05;;;;;;;6.07;3.08;;;;;;;;;;4973621;28;20117;-68
2022/02/21 10:58:33;;;;;;;6.10;3.13;;;;;;;;;;4973422;28;20047;-69
2022/02/21 11:01:01;;;;;;;6.65;2.97;;;;;;;;;;4973873;28;20117;-68
2022/02/21 11:03:30;;;;;;;8.23;3.50;;;;;;;;;;4973422;28;20074;-67
2022/02/21 11:06:04;;;;;;;7.30;3.15;;;;;;;;;;4956528;28;20053;-69
2022/02/21 11:08:32;;;;;;;9.60;2.85;;;;;;;;;;4973432;28;20047;-67
2022/02/21 11:11:05;;;;;;;5.07;2.67;;;;;;;;;;4973626;28;20479;-67
2022/02/21 11:13:33;;;;;;;7.00;3.28;;;;;;;;;;4973331;28;20079;-67
2022/02/21 11:16:04;;;;;;;7.78;3.03;;;;;;;;;;4973021;28;20119;-69
2022/02/21 11:18:37;;;;;;;7.13;3.05;;;;;;;;;;4973563;28;20557;-69
2022/02/21 11:21:05;;;;;;;6.05;3.63;;;;;;;;;;4973535;28;20045;-68
2022/02/21 11:23:36;;;;;;;9.23;3.22;;;;;;;;;;4973656;28;20462;-68
2022/02/21 11:26:20;;;;;;;8.95;2.78;;;;;;;;;;4972981;28;20061;-69
2022/02/21 11:29:14;;;;;;;6.97;2.58;;;;;;;;;;4973199;28;20067;-69
2022/02/21 11:31:44;;;;;;;6.85;2.10;;;;;;;;;;4943847;28;20086;-68
2022/02/21 11:34:11;;;;;;;6.05;2.72;;;;;;;;;;4972963;28;20047;-68
2022/02/21 11:36:42;;;;;;;6.57;2.60;;;;;;;;;;4973160;28;20051;-68
2022/02/21 11:39:19;;;;;;;5.43;2.50;;;;;;;;;;4979869;28;20518;-70
2022/02/21 11:42:16;;;;;;;6.68;2.40;;;;;;;;;;4973261;28;20399;-68
2022/02/21 11:44:54;;;;;;;6.88;2.47;;;;;;;;;;4973367;28;20070;-69
2022/02/21 11:47:37;;;;;;;4.95;2.28;;;;;;;;;;4972889;28;20051;-68
2022/02/21 11:50:08;;;;;;;6.45;2.60;;;;;;;;;;4969672;28;20069;-68
2022/02/21 11:52:38;;;;;;;6.30;2.45;;;;;;;;;;4972631;28;20078;-69
2022/02/21 11:55:24;;;;;;;5.75;2.50;;;;;;;;;;4972661;28;20405;-68
2022/02/21 11:57:53;;;;;;;6.32;2.42;;;;;;;;;;4972803;28;20118;-70
2022/02/21 12:00:33;;;;;;;7.25;2.50;;;;;;;;;;4973059;28;20386;-68
2022/02/21 12:03:08;;;;;;;7.32;2.17;;;;;;;;;;4973103;28;20070;-69
2022/02/21 12:05:35;;;;;;;6.63;2.05;;;;;;;;;;4973022;28;20133;-69
2022/02/21 12:08:29;;;;;;;5.28;2.38;;;;;;;;;;4958340;28;20414;-69
2022/02/21 12:11:03;;;;;;;3.95;2.20;;;;;;;;;;4973022;28;20799;-68
2022/02/21 12:13:32;;;;;;;4.93;2.08;;;;;;;;;;4973237;28;20463;-68
2022/02/21 12:16:01;;;;;;;8.15;4.40;;;;;;;;;;4972923;28;20134;-68
2022/02/21 12:18:31;;;;;;;8.02;4.40;;;;;;;;;;4972924;28;20046;-69
2022/02/21 12:21:13;;;;;;;10.02;4.95;;;;;;;;;;4974670;28;20384;-67
2022/02/21 12:23:55;;;;;;;14.02;4.63;;;;;;;;;;4976194;28;20047;-69
2022/02/21 12:26:25;;;;;;;14.38;4.95;;;;;;;;;;4978276;28;20054;-69
2022/02/21 12:29:11;;;;;;;11.63;4.55;;;;;;;;;;4984092;28;20050;-68
2022/02/21 12:31:41;;;;;;;13.70;5.20;;;;;;;;;;4980968;28;20049;-70
2022/02/21 12:34:10;;;;;;;17.13;5.40;;;;;;;;;;4979899;28;20041;-67
2022/02/21 12:36:43;;;;;;;18.73;5.07;;;;;;;;;;4966732;28;20054;-68
2022/02/21 12:39:12;;;;;;;10.00;4.40;;;;;;;;;;4977818;28;20494;-67
2022/02/21 12:41:41;;;;;;;14.60;5.05;;;;;;;;;;4979274;28;20117;-69
2022/02/21 12:44:14;;;;;;;8.68;4.65;;;;;;;;;;4981236;28;20042;-68
2022/02/21 12:46:54;;;;;;;15.05;5.03;;;;;;;;;;4976988;28;20058;-67
2022/02/21 12:49:26;;;;;;;10.00;4.07;;;;;;;;;;4975922;28;20043;-68
2022/02/21 12:51:55;;;;;;;14.75;4.45;;;;;;;;;;4976538;28;20509;-67
2022/02/21 12:54:23;;;;;;;11.65;4.38;;;;;;;;;;4958202;28;20530;-70
2022/02/21 12:56:54;;;;;;;15.30;4.50;;;;;;;;;;4979555;28;20035;-70
2022/02/21 12:59:25;;;;;;;10.88;4.45;;;;;;;;;;4974618;28;20046;-70
2022/02/21 13:01:54;;;;;;;11.35;4.50;;;;;;;;;;4981946;28;20121;-67
2022/02/21 13:04:23;;;;;;;15.57;4.68;;;;;;;;;;4982091;28;20421;-68
2022/02/21 13:06:50;;;;;;;14.93;4.55;;;;;;;;;;4976174;28;20479;-69
2022/02/21 13:09:22;;;;;;;10.95;4.78;;;;;;;;;;4976450;28;20050;-68
2022/02/21 13:11:56;;;;;;;14.38;4.45;;;;;;;;;;4984438;28;20049;-69
2022/02/21 13:14:29;;;;;;;12.68;4.35;;;;;;;;;;4975604;28;20039;-67
2022/02/21 13:17:05;;;;;;;13.55;4.32;;;;;;;;;;4975412;28;20066;-69
2022/02/21 13:19:37;;;;;;;12.18;4.22;;;;;;;;;;4975870;28;20441;-69
2022/02/21 13:22:07;;;;;;;17.65;4.93;;;;;;;;;;4975659;28;20077;-67
2022/02/21 13:24:38;;;;;;;11.90;4.00;;;;;;;;;;4975330;28;20085;-68
2022/02/21 13:27:06;;;;;;;13.23;4.88;;;;;;;;;;4974348;28;20065;-67
2022/02/21 13:29:34;;;;;;;13.02;4.72;;;;;;;;;;4977949;28;20035;-67
2022/02/21 13:32:05;;;;;;;15.20;4.03;;;;;;;;;;4975746;28;20039;-67
2022/02/21 13:34:46;;;;;;;9.93;4.35;;;;;;;;;;4974105;28;20070;-67
2022/02/21 13:37:19;;;;;;;12.27;3.90;;;;;;;;;;4957832;28;20043;-67
2022/02/21 13:39:48;;;;;;;13.27;3.90;;;;;;;;;;4979344;28;20035;-69
2022/02/21 13:42:30;;;;;;;15.07;4.05;;;;;;;;;;4974401;28;20129;-68
2022/02/21 13:45:18;;;;;;;12.95;3.67;;;;;;;;;;4974121;28;20049;-68
2022/02/21 13:47:56;;;;;;;10.18;3.47;;;;;;;;;;4971530;28;20058;-69
2022/02/21 13:50:36;;;;;;;12.23;3.50;;;;;;;;;;4973514;28;20046;-68
2022/02/21 13:53:04;;;;;;;12.88;3.15;;;;;;;;;;4956943;28;20038;-70
2022/02/21 13:55:34;;;;;;;10.98;3.90;;;;;;;;;;4976884;28;20035;-71
2022/02/21 13:58:03;;;;;;;11.85;3.80;;;;;;;;;;4957486;28;20097;-70
2022/02/21 14:00:38;;;;;;;13.90;3.45;;;;;;;;;;4974058;28;20170;-68
2022/02/21 14:03:07;;;;;;;8.27;3.65;;;;;;;;;;4976838;28;20039;-70
2022/02/21 14:05:52;;;;;;;13.82;4.28;;;;;;;;;;4974510;28;20053;-70
2022/02/21 14:08:20;;;;;;;11.75;3.88;;;;;;;;;;4974300;28;20047;-69
2022/02/21 14:11:07;;;;;;;12.25;3.70;;;;;;;;;;4974104;28;20049;-70
2022/02/21 14:13:35;;;;;;;14.35;3.50;;;;;;;;;;4973810;28;20105;-68
2022/02/21 14:16:05;;;;;;;11.25;3.75;;;;;;;;;;4976168;28;20097;-69
2022/02/21 14:18:34;;;;;;;10.23;3.60;;;;;;;;;;4976715;28;20035;-69
2022/02/21 14:21:06;;;;;;;10.68;3.78;;;;;;;;;;4974224;28;20050;-68
2022/02/21 14:23:33;;;;;;;12.73;3.50;;;;;;;;;;4976709;28;20122;-69
2022/02/21 14:26:01;;;;;;;8.95;3.58;;;;;;;;;;4976642;28;20502;-70
2022/02/21 14:28:29;;;;;;;10.93;4.00;;;;;;;;;;4974868;28;20398;-70
2022/02/21 14:30:56;;;;;;;13.95;4.00;;;;;;;;;;4974816;28;20051;-68
2022/02/21 14:33:24;;;;;;;13.60;4.57;;;;;;;;;;4975646;28;20053;-68
2022/02/21 14:35:52;;;;;;;12.27;3.60;;;;;;;;;;4980500;28;20039;-69
2022/02/21 14:38:20;;;;;;;11.95;3.60;;;;;;;;;;4981913;28;20034;-70
2022/02/21 14:40:48;;;;;;;9.15;3.40;;;;;;;;;;4975888;28;20599;-69
2022/02/21 14:43:17;;;;;;;12.02;3.63;;;;;;;;;;4972562;28;20050;-69
2022/02/21 14:45:48;;;;;;;8.48;3.10;;;;;;;;;;4973410;28;20467;-69
2022/02/21 14:48:16;;;;;;;11.75;3.78;;;;;;;;;;4975369;28;20054;-70